sensor_id;sensor_type;location;lat;lon;timestamp;temperature;humidity
8780;DHT22;62328;51.19929245;4.42130175;2022-11-20T00:01:19;5.90;99.90
8780;DHT22;62328;51.19929245;4.42130175;2022-11-20T00:03:47;5.90;99.90
8780;DHT22;62328;51.19929245;4.42130175;2022-11-20T00:06:15;5.90;99.90
8780;DHT22;62328;51.19929245;4.42130175;2022-11-20T00:08:42;5.90;99.90
8780;DHT22;62328;51.19929245;4.42130175;2022-11-20T00:11:12;5.90;99.90
8780;DHT22;62328;51.19929245;4.42130175;2022-11-20T00:13:39;5.90;99.90
8780;DHT22;62328;51.19929245;4.42130175;2022-11-20T00:16:08;5.90;99.90
8780;DHT22;62328;51.19929245;4.42130175;2022-11-20T00:18:37;5.90;99.90
8780;DHT22;62328;51.19929245;4.42130175;2022-11-20T00:21:05;5.90;99.90
8780;DHT22;62328;51.19929245;4.42130175;2022-11-20T00:23:33;5.90;99.90
8780;DHT22;62328;51.19929245;4.42130175;2022-11-20T00:26:03;5.90;99.90
8780;DHT22;62328;51.19929245;4.42130175;2022-11-20T00:28:30;5.90;99.90
8780;DHT22;62328;51.19929245;4.42130175;2022-11-20T00:31:01;5.90;99.90
8780;DHT22;62328;51.19929245;4.42130175;2022-11-20T00:33:29;6.00;99.90
8780;DHT22;62328;51.19929245;4.42130175;2022-11-20T00:36:00;6.00;99.90
8780;DHT22;62328;51.19929245;4.42130175;2022-11-20T00:38:27;5.90;99.90
8780;DHT22;62328;51.19929245;4.42130175;2022-11-20T00:40:56;5.90;99.90
8780;DHT22;62328;51.19929245;4.42130175;2022-11-20T00:43:23;5.90;99.90
8780;DHT22;62328;51.19929245;4.42130175;2022-11-20T00:45:49;5.90;99.90
8780;DHT22;62328;51.19929245;4.42130175;2022-11-20T00:48:16;6.00;99.90
8780;DHT22;62328;51.19929245;4.42130175;2022-11-20T00:50:43;5.90;99.90
8780;DHT22;62328;51.19929245;4.42130175;2022-11-20T00:53:11;6.00;99.90
8780;DHT22;62328;51.19929245;4.42130175;2022-11-20T00:55:38;6.00;99.90
8780;DHT22;62328;51.19929245;4.42130175;2022-11-20T00:58:04;5.90;99.90
8780;DHT22;62328;51.19929245;4.42130175;2022-11-20T01:00:31;5.90;99.90
8780;DHT22;62328;51.19929245;4.42130175;2022-11-20T01:02:58;5.90;99.90
8780;DHT22;62328;51.19929245;4.42130175;2022-11-20T01:05:25;5.90;99.90
8780;DHT22;62328;51.19929245;4.42130175;2022-11-20T01:07:51;5.90;99.90
8780;DHT22;62328;51.19929245;4.42130175;2022-11-20T01:10:20;5.90;99.90
8780;DHT22;62328;51.19929245;4.42130175;2022-11-20T01:12:46;5.90;99.90
8780;DHT22;62328;51.19929245;4.42130175;2022-11-20T01:15:33;5.90;99.90
8780;DHT22;62328;51.19929245;4.42130175;2022-11-20T01:18:02;5.90;99.90
8780;DHT22;62328;51.19929245;4.42130175;2022-11-20T01:20:29;5.90;99.90
8780;DHT22;62328;51.19929245;4.42130175;2022-11-20T01:22:55;5.90;99.90
8780;DHT22;62328;51.19929245;4.42130175;2022-11-20T01:25:23;5.90;99.90
8780;DHT22;62328;51.19929245;4.42130175;2022-11-20T01:27:50;5.90;99.90
8780;DHT22;62328;51.19929245;4.42130175;2022-11-20T01:30:18;5.80;99.90
8780;DHT22;62328;51.19929245;4.42130175;2022-11-20T01:32:45;5.80;99.90
8780;DHT22;62328;51.19929245;4.42130175;2022-11-20T01:35:12;5.80;99.90
8780;DHT22;62328;51.19929245;4.42130175;2022-11-20T01:37:38;5.80;99.90
8780;DHT22;62328;51.19929245;4.42130175;2022-11-20T01:40:06;5.80;99.90
8780;DHT22;62328;51.19929245;4.42130175;2022-11-20T01:42:34;5.80;99.90
8780;DHT22;62328;51.19929245;4.42130175;2022-11-20T01:48:33;5.70;99.90
8780;DHT22;62328;51.19929245;4.42130175;2022-11-20T01:51:01;5.70;99.90
8780;DHT22;62328;51.19929245;4.42130175;2022-11-20T01:53:32;5.70;99.90
8780;DHT22;62328;51.19929245;4.42130175;2022-11-20T01:56:01;5.70;99.90
8780;DHT22;62328;51.19929245;4.42130175;2022-11-20T01:58:34;5.70;99.90
8780;DHT22;62328;51.19929245;4.42130175;2022-11-20T02:01:03;5.70;99.90
8780;DHT22;62328;51.19929245;4.42130175;2022-11-20T02:03:30;5.70;99.90
8780;DHT22;62328;51.19929245;4.42130175;2022-11-20T02:06:04;5.70;99.90
8780;DHT22;62328;51.19929245;4.42130175;2022-11-20T02:08:32;5.70;99.90
8780;DHT22;62328;51.19929245;4.42130175;2022-11-20T02:10:59;5.70;99.90
8780;DHT22;62328;51.19929245;4.42130175;2022-11-20T02:13:26;5.70;99.90
8780;DHT22;62328;51.19929245;4.42130175;2022-11-20T02:16:20;5.80;99.90
8780;DHT22;62328;51.19929245;4.42130175;2022-11-20T02:18:47;5.80;99.90
8780;DHT22;62328;51.19929245;4.42130175;2022-11-20T02:21:27;5.80;99.90
8780;DHT22;62328;51.19929245;4.42130175;2022-11-20T02:24:07;5.80;99.90
8780;DHT22;62328;51.19929245;4.42130175;2022-11-20T02:26:39;5.70;99.90
8780;DHT22;62328;51.19929245;4.42130175;2022-11-20T02:29:06;5.80;99.90
8780;DHT22;62328;51.19929245;4.42130175;2022-11-20T02:31:41;5.80;99.90
8780;DHT22;62328;51.19929245;4.42130175;2022-11-20T02:34:09;5.80;99.90
8780;DHT22;62328;51.19929245;4.42130175;2022-11-20T02:36:36;5.70;99.90
8780;DHT22;62328;51.19929245;4.42130175;2022-11-20T02:39:07;5.80;99.90
8780;DHT22;62328;51.19929245;4.42130175;2022-11-20T02:41:35;5.80;99.90
8780;DHT22;62328;51.19929245;4.42130175;2022-11-20T02:44:03;5.80;99.90
8780;DHT22;62328;51.19929245;4.42130175;2022-11-20T02:46:31;5.80;99.90
8780;DHT22;62328;51.19929245;4.42130175;2022-11-20T02:48:58;5.80;99.90
8780;DHT22;62328;51.19929245;4.42130175;2022-11-20T02:51:24;5.80;99.90
8780;DHT22;62328;51.19929245;4.42130175;2022-11-20T02:53:51;5.70;99.90
8780;DHT22;62328;51.19929245;4.42130175;2022-11-20T02:56:20;5.70;99.90
8780;DHT22;62328;51.19929245;4.42130175;2022-11-20T02:58:46;5.60;99.90
8780;DHT22;62328;51.19929245;4.42130175;2022-11-20T03:01:13;5.60;99.90
8780;DHT22;62328;51.19929245;4.42130175;2022-11-20T03:03:40;5.60;99.90
8780;DHT22;62328;51.19929245;4.42130175;2022-11-20T03:06:07;5.60;99.90
8780;DHT22;62328;51.19929245;4.42130175;2022-11-20T03:08:34;5.70;99.90
8780;DHT22;62328;51.19929245;4.42130175;2022-11-20T03:11:06;5.70;99.90
8780;DHT22;62328;51.19929245;4.42130175;2022-11-20T03:13:34;5.70;99.90
8780;DHT22;62328;51.19929245;4.42130175;2022-11-20T03:16:09;5.60;99.90
8780;DHT22;62328;51.19929245;4.42130175;2022-11-20T03:18:37;5.60;99.90
8780;DHT22;62328;51.19929245;4.42130175;2022-11-20T03:21:04;5.60;99.90
8780;DHT22;62328;51.19929245;4.42130175;2022-11-20T03:23:31;5.70;99.90
8780;DHT22;62328;51.19929245;4.42130175;2022-11-20T03:26:10;5.60;99.90
8780;DHT22;62328;51.19929245;4.42130175;2022-11-20T03:28:39;5.60;99.90
8780;DHT22;62328;51.19929245;4.42130175;2022-11-20T03:31:07;5.60;99.90
8780;DHT22;62328;51.19929245;4.42130175;2022-11-20T03:33:35;5.60;99.90
8780;DHT22;62328;51.19929245;4.42130175;2022-11-20T03:36:03;5.60;99.90
8780;DHT22;62328;51.19929245;4.42130175;2022-11-20T03:38:30;5.60;99.90
8780;DHT22;62328;51.19929245;4.42130175;2022-11-20T03:41:01;5.70;99.90
8780;DHT22;62328;51.19929245;4.42130175;2022-11-20T03:43:29;5.60;99.90
8780;DHT22;62328;51.19929245;4.42130175;2022-11-20T03:45:57;5.60;99.90
8780;DHT22;62328;51.19929245;4.42130175;2022-11-20T03:48:24;5.60;99.90
8780;DHT22;62328;51.19929245;4.42130175;2022-11-20T03:50:51;5.60;99.90
8780;DHT22;62328;51.19929245;4.42130175;2022-11-20T03:53:18;5.60;99.90
8780;DHT22;62328;51.19929245;4.42130175;2022-11-20T03:55:45;5.60;99.90
8780;DHT22;62328;51.19929245;4.42130175;2022-11-20T03:58:16;5.60;99.90
8780;DHT22;62328;51.19929245;4.42130175;2022-11-20T04:00:43;5.60;99.90
8780;DHT22;62328;51.19929245;4.42130175;2022-11-20T04:03:11;5.60;99.90
8780;DHT22;62328;51.19929245;4.42130175;2022-11-20T04:05:38;5.60;99.90
8780;DHT22;62328;51.19929245;4.42130175;2022-11-20T04:08:05;5.60;99.90
8780;DHT22;62328;51.19929245;4.42130175;2022-11-20T04:10:32;5.50;99.90
8780;DHT22;62328;51.19929245;4.42130175;2022-11-20T04:12:59;5.50;99.90
8780;DHT22;62328;51.19929245;4.42130175;2022-11-20T04:15:25;5.50;99.90
8780;DHT22;62328;51.19929245;4.42130175;2022-11-20T04:17:53;5.50;99.90
8780;DHT22;62328;51.19929245;4.42130175;2022-11-20T04:20:22;5.50;99.90
8780;DHT22;62328;51.19929245;4.42130175;2022-11-20T04:22:48;5.50;99.90
8780;DHT22;62328;51.19929245;4.42130175;2022-11-20T04:25:15;5.60;99.90
8780;DHT22;62328;51.19929245;4.42130175;2022-11-20T04:27:42;5.60;99.90
8780;DHT22;62328;51.19929245;4.42130175;2022-11-20T04:30:10;5.60;99.90
8780;DHT22;62328;51.19929245;4.42130175;2022-11-20T04:32:36;5.60;99.90
8780;DHT22;62328;51.19929245;4.42130175;2022-11-20T04:35:04;5.60;99.90
8780;DHT22;62328;51.19929245;4.42130175;2022-11-20T04:37:32;5.60;99.90
8780;DHT22;62328;51.19929245;4.42130175;2022-11-20T04:39:59;5.70;99.90
8780;DHT22;62328;51.19929245;4.42130175;2022-11-20T04:42:26;5.70;99.90
8780;DHT22;62328;51.19929245;4.42130175;2022-11-20T04:44:56;5.60;99.90
8780;DHT22;62328;51.19929245;4.42130175;2022-11-20T04:47:23;5.60;99.90
8780;DHT22;62328;51.19929245;4.42130175;2022-11-20T04:49:50;5.60;99.90
8780;DHT22;62328;51.19929245;4.42130175;2022-11-20T04:52:17;5.60;99.90
8780;DHT22;62328;51.19929245;4.42130175;2022-11-20T04:54:45;5.60;99.90
8780;DHT22;62328;51.19929245;4.42130175;2022-11-20T04:57:13;5.70;99.90
8780;DHT22;62328;51.19929245;4.42130175;2022-11-20T04:59:41;5.70;99.90
8780;DHT22;62328;51.19929245;4.42130175;2022-11-20T05:02:08;5.60;99.90
8780;DHT22;62328;51.19929245;4.42130175;2022-11-20T05:04:34;5.60;99.90
8780;DHT22;62328;51.19929245;4.42130175;2022-11-20T05:07:01;5.60;99.90
8780;DHT22;62328;51.19929245;4.42130175;2022-11-20T05:09:28;5.60;99.90
8780;DHT22;62328;51.19929245;4.42130175;2022-11-20T05:11:56;5.60;99.90
8780;DHT22;62328;51.19929245;4.42130175;2022-11-20T05:14:23;5.50;99.90
8780;DHT22;62328;51.19929245;4.42130175;2022-11-20T05:16:49;5.60;99.90
8780;DHT22;62328;51.19929245;4.42130175;2022-11-20T05:19:16;5.60;99.90
8780;DHT22;62328;51.19929245;4.42130175;2022-11-20T05:21:43;5.60;99.90
8780;DHT22;62328;51.19929245;4.42130175;2022-11-20T05:24:10;5.60;99.90
8780;DHT22;62328;51.19929245;4.42130175;2022-11-20T05:26:37;5.70;99.90
8780;DHT22;62328;51.19929245;4.42130175;2022-11-20T05:29:05;5.70;99.90
8780;DHT22;62328;51.19929245;4.42130175;2022-11-20T05:31:32;5.70;99.90
8780;DHT22;62328;51.19929245;4.42130175;2022-11-20T05:33:58;5.70;99.90
8780;DHT22;62328;51.19929245;4.42130175;2022-11-20T05:36:25;5.60;99.90
8780;DHT22;62328;51.19929245;4.42130175;2022-11-20T05:38:52;5.50;99.90
8780;DHT22;62328;51.19929245;4.42130175;2022-11-20T05:41:20;5.50;99.90
8780;DHT22;62328;51.19929245;4.42130175;2022-11-20T05:43:47;5.60;99.90
8780;DHT22;62328;51.19929245;4.42130175;2022-11-20T05:46:17;5.60;99.90
8780;DHT22;62328;51.19929245;4.42130175;2022-11-20T05:48:45;5.60;99.90
8780;DHT22;62328;51.19929245;4.42130175;2022-11-20T05:51:14;5.60;99.90
8780;DHT22;62328;51.19929245;4.42130175;2022-11-20T05:53:42;5.60;99.90
8780;DHT22;62328;51.19929245;4.42130175;2022-11-20T05:56:10;5.60;99.90
8780;DHT22;62328;51.19929245;4.42130175;2022-11-20T05:58:37;5.70;99.90
8780;DHT22;62328;51.19929245;4.42130175;2022-11-20T06:01:06;5.70;99.90
8780;DHT22;62328;51.19929245;4.42130175;2022-11-20T06:03:35;5.70;99.90
8780;DHT22;62328;51.19929245;4.42130175;2022-11-20T06:06:03;5.60;99.90
8780;DHT22;62328;51.19929245;4.42130175;2022-11-20T06:08:30;5.60;99.90
8780;DHT22;62328;51.19929245;4.42130175;2022-11-20T06:10:57;5.60;99.90
8780;DHT22;62328;51.19929245;4.42130175;2022-11-20T06:13:24;5.70;99.90
8780;DHT22;62328;51.19929245;4.42130175;2022-11-20T06:15:52;5.70;99.90
8780;DHT22;62328;51.19929245;4.42130175;2022-11-20T06:18:19;5.70;99.90
8780;DHT22;62328;51.19929245;4.42130175;2022-11-20T06:20:47;5.70;99.90
8780;DHT22;62328;51.19929245;4.42130175;2022-11-20T06:23:14;5.70;99.90
8780;DHT22;62328;51.19929245;4.42130175;2022-11-20T06:25:42;5.70;99.90
8780;DHT22;62328;51.19929245;4.42130175;2022-11-20T06:28:09;5.70;99.90
8780;DHT22;62328;51.19929245;4.42130175;2022-11-20T06:30:36;5.60;99.90
8780;DHT22;62328;51.19929245;4.42130175;2022-11-20T06:33:03;5.70;99.90
8780;DHT22;62328;51.19929245;4.42130175;2022-11-20T06:35:29;5.70;99.90
8780;DHT22;62328;51.19929245;4.42130175;2022-11-20T06:37:57;5.70;99.90
8780;DHT22;62328;51.19929245;4.42130175;2022-11-20T06:40:24;5.80;99.90
8780;DHT22;62328;51.19929245;4.42130175;2022-11-20T06:42:53;5.70;99.90
8780;DHT22;62328;51.19929245;4.42130175;2022-11-20T06:45:20;5.70;99.90
8780;DHT22;62328;51.19929245;4.42130175;2022-11-20T06:47:47;5.70;99.90
8780;DHT22;62328;51.19929245;4.42130175;2022-11-20T06:50:14;5.70;99.90
8780;DHT22;62328;51.19929245;4.42130175;2022-11-20T06:52:40;5.70;99.90
8780;DHT22;62328;51.19929245;4.42130175;2022-11-20T06:55:09;5.70;99.90
8780;DHT22;62328;51.19929245;4.42130175;2022-11-20T06:57:36;5.70;99.90
8780;DHT22;62328;51.19929245;4.42130175;2022-11-20T07:00:03;5.70;99.90
8780;DHT22;62328;51.19929245;4.42130175;2022-11-20T07:02:30;5.70;99.90
8780;DHT22;62328;51.19929245;4.42130175;2022-11-20T07:04:56;5.70;99.90
8780;DHT22;62328;51.19929245;4.42130175;2022-11-20T07:07:23;5.70;99.90
8780;DHT22;62328;51.19929245;4.42130175;2022-11-20T07:09:50;5.60;99.90
8780;DHT22;62328;51.19929245;4.42130175;2022-11-20T07:12:18;5.70;99.90
8780;DHT22;62328;51.19929245;4.42130175;2022-11-20T07:14:45;5.70;99.90
8780;DHT22;62328;51.19929245;4.42130175;2022-11-20T07:17:12;5.70;99.90
8780;DHT22;62328;51.19929245;4.42130175;2022-11-20T07:19:39;5.70;99.90
8780;DHT22;62328;51.19929245;4.42130175;2022-11-20T07:22:06;5.70;99.90
8780;DHT22;62328;51.19929245;4.42130175;2022-11-20T07:24:32;5.70;99.90
8780;DHT22;62328;51.19929245;4.42130175;2022-11-20T07:27:00;5.70;99.90
8780;DHT22;62328;51.19929245;4.42130175;2022-11-20T07:29:28;5.70;99.90
8780;DHT22;62328;51.19929245;4.42130175;2022-11-20T07:31:55;5.70;99.90
8780;DHT22;62328;51.19929245;4.42130175;2022-11-20T07:34:22;5.70;99.90
8780;DHT22;62328;51.19929245;4.42130175;2022-11-20T07:36:48;5.80;99.90
8780;DHT22;62328;51.19929245;4.42130175;2022-11-20T07:39:15;5.90;99.90
8780;DHT22;62328;51.19929245;4.42130175;2022-11-20T07:41:42;5.90;99.90
8780;DHT22;62328;51.19929245;4.42130175;2022-11-20T07:44:09;5.90;99.90
8780;DHT22;62328;51.19929245;4.42130175;2022-11-20T07:46:37;5.90;99.90
8780;DHT22;62328;51.19929245;4.42130175;2022-11-20T07:49:04;5.90;99.90
8780;DHT22;62328;51.19929245;4.42130175;2022-11-20T07:51:30;5.90;99.90
8780;DHT22;62328;51.19929245;4.42130175;2022-11-20T07:53:57;5.90;99.90
8780;DHT22;62328;51.19929245;4.42130175;2022-11-20T07:56:24;5.90;99.90
8780;DHT22;62328;51.19929245;4.42130175;2022-11-20T07:58:51;5.90;99.90
8780;DHT22;62328;51.19929245;4.42130175;2022-11-20T08:01:17;5.90;99.90
8780;DHT22;62328;51.19929245;4.42130175;2022-11-20T08:03:46;5.90;99.90
8780;DHT22;62328;51.19929245;4.42130175;2022-11-20T08:06:12;6.00;99.90
8780;DHT22;62328;51.19929245;4.42130175;2022-11-20T08:08:40;6.00;99.90
8780;DHT22;62328;51.19929245;4.42130175;2022-11-20T08:11:07;6.00;99.90
8780;DHT22;62328;51.19929245;4.42130175;2022-11-20T08:13:51;6.10;99.90
8780;DHT22;62328;51.19929245;4.42130175;2022-11-20T08:16:35;6.10;99.90
8780;DHT22;62328;51.19929245;4.42130175;2022-11-20T08:19:03;6.10;99.90
8780;DHT22;62328;51.19929245;4.42130175;2022-11-20T08:21:30;6.10;99.90
8780;DHT22;62328;51.19929245;4.42130175;2022-11-20T08:23:57;6.10;99.90
8780;DHT22;62328;51.19929245;4.42130175;2022-11-20T08:26:25;6.10;99.90
8780;DHT22;62328;51.19929245;4.42130175;2022-11-20T08:28:53;6.10;99.90
8780;DHT22;62328;51.19929245;4.42130175;2022-11-20T08:31:20;6.10;99.90
8780;DHT22;62328;51.19929245;4.42130175;2022-11-20T08:33:47;6.20;99.90
8780;DHT22;62328;51.19929245;4.42130175;2022-11-20T08:36:16;6.20;99.90
8780;DHT22;62328;51.19929245;4.42130175;2022-11-20T08:38:46;6.20;99.90
8780;DHT22;62328;51.19929245;4.42130175;2022-11-20T08:41:13;6.20;99.90
8780;DHT22;62328;51.19929245;4.42130175;2022-11-20T08:43:55;6.20;99.90
8780;DHT22;62328;51.19929245;4.42130175;2022-11-20T08:46:23;6.20;99.90
8780;DHT22;62328;51.19929245;4.42130175;2022-11-20T08:48:50;6.20;99.90
8780;DHT22;62328;51.19929245;4.42130175;2022-11-20T08:51:18;6.20;99.90
8780;DHT22;62328;51.19929245;4.42130175;2022-11-20T08:53:46;6.20;99.90
8780;DHT22;62328;51.19929245;4.42130175;2022-11-20T08:56:14;6.30;99.90
8780;DHT22;62328;51.19929245;4.42130175;2022-11-20T08:58:40;6.30;99.90
8780;DHT22;62328;51.19929245;4.42130175;2022-11-20T09:01:07;6.20;99.90
8780;DHT22;62328;51.19929245;4.42130175;2022-11-20T09:03:34;6.30;99.90
8780;DHT22;62328;51.19929245;4.42130175;2022-11-20T09:06:04;6.30;99.90
8780;DHT22;62328;51.19929245;4.42130175;2022-11-20T09:08:33;6.30;99.90
8780;DHT22;62328;51.19929245;4.42130175;2022-11-20T09:11:01;6.30;99.90
8780;DHT22;62328;51.19929245;4.42130175;2022-11-20T09:13:29;6.40;99.90
8780;DHT22;62328;51.19929245;4.42130175;2022-11-20T09:15:57;6.40;99.90
8780;DHT22;62328;51.19929245;4.42130175;2022-11-20T09:18:24;6.40;99.90
8780;DHT22;62328;51.19929245;4.42130175;2022-11-20T09:20:51;6.40;99.90
8780;DHT22;62328;51.19929245;4.42130175;2022-11-20T09:23:22;6.40;99.90
8780;DHT22;62328;51.19929245;4.42130175;2022-11-20T09:25:50;6.40;99.90
8780;DHT22;62328;51.19929245;4.42130175;2022-11-20T09:28:18;6.40;99.90
8780;DHT22;62328;51.19929245;4.42130175;2022-11-20T09:30:44;6.50;99.90
8780;DHT22;62328;51.19929245;4.42130175;2022-11-20T09:33:11;6.50;99.90
8780;DHT22;62328;51.19929245;4.42130175;2022-11-20T09:35:38;6.50;99.90
8780;DHT22;62328;51.19929245;4.42130175;2022-11-20T09:38:06;6.50;99.90
8780;DHT22;62328;51.19929245;4.42130175;2022-11-20T09:40:35;6.60;99.90
8780;DHT22;62328;51.19929245;4.42130175;2022-11-20T09:43:08;6.60;99.90
8780;DHT22;62328;51.19929245;4.42130175;2022-11-20T09:45:54;6.60;99.90
8780;DHT22;62328;51.19929245;4.42130175;2022-11-20T09:48:34;6.60;99.90
8780;DHT22;62328;51.19929245;4.42130175;2022-11-20T09:51:13;6.70;99.90
8780;DHT22;62328;51.19929245;4.42130175;2022-11-20T09:53:50;6.70;99.90
8780;DHT22;62328;51.19929245;4.42130175;2022-11-20T09:56:20;6.80;99.90
8780;DHT22;62328;51.19929245;4.42130175;2022-11-20T09:58:50;6.90;99.90
8780;DHT22;62328;51.19929245;4.42130175;2022-11-20T10:01:19;6.90;99.90
8780;DHT22;62328;51.19929245;4.42130175;2022-11-20T10:03:53;6.90;99.90
8780;DHT22;62328;51.19929245;4.42130175;2022-11-20T10:06:27;7.00;99.90
8780;DHT22;62328;51.19929245;4.42130175;2022-11-20T10:09:01;7.00;99.90
8780;DHT22;62328;51.19929245;4.42130175;2022-11-20T10:11:39;7.00;99.90
8780;DHT22;62328;51.19929245;4.42130175;2022-11-20T10:14:18;7.00;99.90
8780;DHT22;62328;51.19929245;4.42130175;2022-11-20T10:16:53;7.00;99.90
8780;DHT22;62328;51.19929245;4.42130175;2022-11-20T10:19:44;7.00;99.90
8780;DHT22;62328;51.19929245;4.42130175;2022-11-20T10:22:26;7.00;99.90
8780;DHT22;62328;51.19929245;4.42130175;2022-11-20T10:25:04;7.10;99.90
8780;DHT22;62328;51.19929245;4.42130175;2022-11-20T10:27:49;7.10;99.90
8780;DHT22;62328;51.19929245;4.42130175;2022-11-20T10:30:22;7.10;99.90
8780;DHT22;62328;51.19929245;4.42130175;2022-11-20T10:32:53;7.10;99.90
8780;DHT22;62328;51.19929245;4.42130175;2022-11-20T10:35:23;7.10;99.90
8780;DHT22;62328;51.19929245;4.42130175;2022-11-20T10:37:55;7.10;99.90
8780;DHT22;62328;51.19929245;4.42130175;2022-11-20T10:40:29;7.10;99.90
8780;DHT22;62328;51.19929245;4.42130175;2022-11-20T10:42:59;7.10;99.90
8780;DHT22;62328;51.19929245;4.42130175;2022-11-20T10:45:36;7.20;99.90
8780;DHT22;62328;51.19929245;4.42130175;2022-11-20T10:48:11;7.30;99.90
8780;DHT22;62328;51.19929245;4.42130175;2022-11-20T10:50:55;7.30;99.90
8780;DHT22;62328;51.19929245;4.42130175;2022-11-20T10:53:36;7.40;99.90
8780;DHT22;62328;51.19929245;4.42130175;2022-11-20T10:56:09;7.40;99.90
8780;DHT22;62328;51.19929245;4.42130175;2022-11-20T10:58:43;7.40;99.90
8780;DHT22;62328;51.19929245;4.42130175;2022-11-20T11:01:16;7.40;99.90
8780;DHT22;62328;51.19929245;4.42130175;2022-11-20T11:03:44;7.50;99.90
8780;DHT22;62328;51.19929245;4.42130175;2022-11-20T11:06:17;7.50;99.90
8780;DHT22;62328;51.19929245;4.42130175;2022-11-20T11:08:47;7.50;99.90
8780;DHT22;62328;51.19929245;4.42130175;2022-11-20T11:11:21;7.60;99.90
8780;DHT22;62328;51.19929245;4.42130175;2022-11-20T11:13:49;7.60;99.90
8780;DHT22;62328;51.19929245;4.42130175;2022-11-20T11:16:21;7.60;99.90
8780;DHT22;62328;51.19929245;4.42130175;2022-11-20T11:18:48;7.70;99.90
8780;DHT22;62328;51.19929245;4.42130175;2022-11-20T11:21:21;7.70;99.90
8780;DHT22;62328;51.19929245;4.42130175;2022-11-20T11:23:58;7.80;99.90
8780;DHT22;62328;51.19929245;4.42130175;2022-11-20T11:26:26;7.80;99.90
8780;DHT22;62328;51.19929245;4.42130175;2022-11-20T11:28:54;7.90;99.90
8780;DHT22;62328;51.19929245;4.42130175;2022-11-20T11:31:28;7.90;99.90
8780;DHT22;62328;51.19929245;4.42130175;2022-11-20T11:34:04;8.00;99.90
8780;DHT22;62328;51.19929245;4.42130175;2022-11-20T11:36:33;8.00;99.90
8780;DHT22;62328;51.19929245;4.42130175;2022-11-20T11:39:02;8.00;99.90
8780;DHT22;62328;51.19929245;4.42130175;2022-11-20T11:41:32;8.00;99.90
8780;DHT22;62328;51.19929245;4.42130175;2022-11-20T11:44:03;8.10;99.90
8780;DHT22;62328;51.19929245;4.42130175;2022-11-20T11:46:58;8.10;99.90
8780;DHT22;62328;51.19929245;4.42130175;2022-11-20T11:49:25;8.20;99.90
8780;DHT22;62328;51.19929245;4.42130175;2022-11-20T11:52:12;8.20;99.90
8780;DHT22;62328;51.19929245;4.42130175;2022-11-20T11:54:44;8.20;99.90
8780;DHT22;62328;51.19929245;4.42130175;2022-11-20T11:57:17;8.30;99.90
8780;DHT22;62328;51.19929245;4.42130175;2022-11-20T12:00:00;8.30;99.90
8780;DHT22;62328;51.19929245;4.42130175;2022-11-20T12:02:36;8.30;99.90
8780;DHT22;62328;51.19929245;4.42130175;2022-11-20T12:05:14;8.40;99.90
8780;DHT22;62328;51.19929245;4.42130175;2022-11-20T12:07:47;8.40;99.90
8780;DHT22;62328;51.19929245;4.42130175;2022-11-20T12:10:18;8.50;99.90
8780;DHT22;62328;51.19929245;4.42130175;2022-11-20T12:12:49;8.50;99.90
8780;DHT22;62328;51.19929245;4.42130175;2022-11-20T12:15:25;8.50;99.90
8780;DHT22;62328;51.19929245;4.42130175;2022-11-20T12:17:54;8.50;99.90
8780;DHT22;62328;51.19929245;4.42130175;2022-11-20T12:20:23;8.60;99.90
8780;DHT22;62328;51.19929245;4.42130175;2022-11-20T12:22:55;8.60;99.90
8780;DHT22;62328;51.19929245;4.42130175;2022-11-20T12:25:25;8.60;99.90
8780;DHT22;62328;51.19929245;4.42130175;2022-11-20T12:28:10;8.60;99.90
8780;DHT22;62328;51.19929245;4.42130175;2022-11-20T12:30:50;8.70;99.90
8780;DHT22;62328;51.19929245;4.42130175;2022-11-20T12:33:35;8.70;99.90
8780;DHT22;62328;51.19929245;4.42130175;2022-11-20T12:36:13;8.70;99.90
8780;DHT22;62328;51.19929245;4.42130175;2022-11-20T12:39:07;8.70;99.90
8780;DHT22;62328;51.19929245;4.42130175;2022-11-20T12:41:56;8.60;99.90
8780;DHT22;62328;51.19929245;4.42130175;2022-11-20T12:45:02;8.70;99.90
8780;DHT22;62328;51.19929245;4.42130175;2022-11-20T12:47:50;8.60;99.90
8780;DHT22;62328;51.19929245;4.42130175;2022-11-20T12:50:30;8.70;99.90
8780;DHT22;62328;51.19929245;4.42130175;2022-11-20T12:53:03;8.70;99.90
8780;DHT22;62328;51.19929245;4.42130175;2022-11-20T12:55:36;8.60;99.90
8780;DHT22;62328;51.19929245;4.42130175;2022-11-20T12:58:11;8.70;99.90
8780;DHT22;62328;51.19929245;4.42130175;2022-11-20T13:00:47;8.80;99.90
8780;DHT22;62328;51.19929245;4.42130175;2022-11-20T13:03:34;8.80;99.90
8780;DHT22;62328;51.19929245;4.42130175;2022-11-20T13:06:11;8.80;99.90
8780;DHT22;62328;51.19929245;4.42130175;2022-11-20T13:08:41;8.80;99.90
8780;DHT22;62328;51.19929245;4.42130175;2022-11-20T13:11:14;8.80;99.90
8780;DHT22;62328;51.19929245;4.42130175;2022-11-20T13:13:54;8.70;99.90
8780;DHT22;62328;51.19929245;4.42130175;2022-11-20T13:16:30;8.70;99.90
8780;DHT22;62328;51.19929245;4.42130175;2022-11-20T13:19:01;8.70;99.90
8780;DHT22;62328;51.19929245;4.42130175;2022-11-20T13:21:38;8.70;99.90
8780;DHT22;62328;51.19929245;4.42130175;2022-11-20T13:24:05;8.70;99.90
8780;DHT22;62328;51.19929245;4.42130175;2022-11-20T13:26:32;8.70;99.90
8780;DHT22;62328;51.19929245;4.42130175;2022-11-20T13:29:03;8.70;99.90
8780;DHT22;62328;51.19929245;4.42130175;2022-11-20T13:31:43;8.70;99.90
8780;DHT22;62328;51.19929245;4.42130175;2022-11-20T13:34:13;8.70;99.90
8780;DHT22;62328;51.19929245;4.42130175;2022-11-20T13:36:51;8.60;99.90
8780;DHT22;62328;51.19929245;4.42130175;2022-11-20T13:39:29;8.60;99.90
8780;DHT22;62328;51.19929245;4.42130175;2022-11-20T13:41:57;8.60;99.90
8780;DHT22;62328;51.19929245;4.42130175;2022-11-20T13:44:29;8.60;99.90
8780;DHT22;62328;51.19929245;4.42130175;2022-11-20T13:46:55;8.60;99.90
8780;DHT22;62328;51.19929245;4.42130175;2022-11-20T13:49:26;8.60;99.90
8780;DHT22;62328;51.19929245;4.42130175;2022-11-20T13:52:05;8.60;99.90
8780;DHT22;62328;51.19929245;4.42130175;2022-11-20T13:55:05;8.60;99.90
8780;DHT22;62328;51.19929245;4.42130175;2022-11-20T13:58:05;8.60;99.90
8780;DHT22;62328;51.19929245;4.42130175;2022-11-20T14:00:43;8.60;99.90
8780;DHT22;62328;51.19929245;4.42130175;2022-11-20T14:03:17;8.60;99.90
8780;DHT22;62328;51.19929245;4.42130175;2022-11-20T14:05:50;8.60;99.90
8780;DHT22;62328;51.19929245;4.42130175;2022-11-20T14:08:27;8.50;99.90